Siam — SGIP — position and weather

sailwx.info

Track history (hours):
 
Tides and Currents Weather Stations Pressure Air Temp Water Temp Dewpoint Dewpoint Depression Visibility Wind Speed Wind Dir Waves Ship Positions

Siam

Last reported at 2016-May-04 04:32 UTC. Time now 2016-May-04 05:59 UTC.
Position N 55°60' E 012°45'.

Length 22 m.

Type: Passenger vessel. MMSI: 265572320.

Date/timePositionNaut miles runAvg speedWind from/ knotsBaromVisibWave heightAir tempDewpointWater temp
2016-May-04 04:32N 55°60' E 012°45'0 0.0
2016-May-04 03:32N 55°60' E 012°45'0 0.0
2016-May-04 02:32N 55°60' E 012°45'0 0.0
2016-May-04 01:32N 55°60' E 012°45'0 0.0
2016-May-04 00:32N 55°60' E 012°45'0 0.0
2016-May-03 23:32N 55°60' E 012°45'0 0.0
2016-May-03 22:26N 55°60' E 012°45'0 0.0
2016-May-03 21:32N 55°60' E 012°45'0 0.0
2016-May-03 20:32N 55°60' E 012°45'0 0.0
2016-May-03 19:32N 55°60' E 012°45'0 0.0
2016-May-03 18:32N 55°60' E 012°45'2 2.1
2016-May-03 17:32N 55°59' E 012°41'0 0.1
2016-May-03 16:33N 55°59' E 012°41'3 2.6
2016-May-03 15:32N 56°02' E 012°41'3 2.8
2016-May-03 14:32N 55°60' E 012°45'0 0.0
2016-May-03 13:31N 55°60' E 012°45'0 0.0
2016-May-03 12:33N 55°60' E 012°45'0 0.0
2016-May-03 11:33N 55°60' E 012°45'4 3.6
2016-May-03 10:33N 55°57' E 012°40'1 1.4
2016-May-03 09:33N 55°56' E 012°39'2 1.7
2016-May-03 08:33N 55°56' E 012°42'4 3.7
2016-May-03 07:33N 55°60' E 012°45'0 0.0
2016-May-03 06:33N 55°60' E 012°45'0 0.0
2016-May-03 05:33N 55°60' E 012°45'0 0.0
2016-May-03 04:33N 55°60' E 012°45'0 0.0
2016-May-03 03:33N 55°60' E 012°45'0 0.0
2016-May-03 02:33N 55°60' E 012°45'0 0.0
2016-May-03 01:30N 55°60' E 012°45'0 0.0
2016-May-03 00:31N 55°60' E 012°45'0 0.0
2016-May-02 23:34N 55°60' E 012°45'0 0.0
2016-May-02 22:33N 55°60' E 012°45'0 0.0
2016-May-02 21:34N 55°60' E 012°45'0 0.0
2016-May-02 20:30N 55°60' E 012°45'0 0.0
2016-May-02 19:27N 55°60' E 012°45'0 0.0
2016-May-02 18:33N 55°60' E 012°45'0 0.0
2016-May-02 17:33N 55°60' E 012°45'0 0.0
2016-May-02 16:33N 55°60' E 012°45'0 0.0
2016-May-02 15:33N 55°60' E 012°45'0 0.0
2016-May-02 14:33N 55°60' E 012°45'0 0.0
2016-May-02 13:33N 55°60' E 012°45'0 0.0
2016-May-02 12:33N 55°60' E 012°45'0 0.0
2016-May-02 11:33N 55°60' E 012°45'0 0.0
2016-May-02 10:31N 55°60' E 012°45'0 0.0
2016-May-02 09:33N 55°60' E 012°45'0 0.0
2016-May-02 08:33N 55°60' E 012°45'0 0.0
2016-May-02 07:27N 55°60' E 012°45'0 0.0
2016-May-02 06:33N 55°60' E 012°45'0 0.0
2016-May-02 05:33N 55°60' E 012°45'0 0.0
2016-May-02 04:33N 55°60' E 012°45'0 0.0
2016-May-02 03:31N 55°60' E 012°45'0 0.0
2016-May-02 02:31N 55°60' E 012°45'0 0.0
2016-May-02 01:33N 55°60' E 012°45'0 0.0
2016-May-02 00:33N 55°60' E 012°45'0 0.0
2016-May-01 23:31N 55°60' E 012°45'0 0.0
2016-May-01 22:33N 55°60' E 012°45'0 0.0
2016-May-01 21:22N 55°60' E 012°45'0 0.0
2016-May-01 20:28N 55°60' E 012°45'0 0.0
2016-May-01 19:30N 55°60' E 012°45'0 0.0
2016-May-01 18:28N 55°60' E 012°45'0 0.0
2016-May-01 17:16N 55°60' E 012°45'0 0.0
2016-May-01 16:24N 55°60' E 012°45'0 0.0
2016-May-01 15:28N 55°60' E 012°45'0 0.0
2016-May-01 14:33N 55°60' E 012°45'0 0.0
2016-May-01 13:28N 55°60' E 012°45'5 5.6
2016-May-01 12:33N 55°55' E 012°39'0 0.4
2016-May-01 11:32N 55°55' E 012°39'0 0.1
2016-May-01 10:32N 55°55' E 012°39'4 3.6
2016-May-01 09:33N 55°59' E 012°39'3 2.8
2016-May-01 08:33N 56°01' E 012°39'3 3.0
2016-May-01 07:33N 55°59' E 012°41'0 0.1
2016-May-01 06:33N 55°59' E 012°41'2 2.1
2016-May-01 05:33N 55°60' E 012°45'0 0.0
2016-May-01 04:31N 55°60' E 012°45'0 0.0
2016-May-01 03:33N 55°60' E 012°45'0 0.0
2016-May-01 02:33N 55°60' E 012°45'0 0.0
2016-May-01 01:30N 55°60' E 012°45'0 0.0
2016-May-01 00:33N 55°60' E 012°45'0 0.0
2016-Apr-30 23:33N 55°60' E 012°45'0 0.0
2016-Apr-30 22:33N 55°60' E 012°45'0 0.0
2016-Apr-30 21:33N 55°60' E 012°45'0 0.0
2016-Apr-30 20:33N 55°60' E 012°45'0 0.0
2016-Apr-30 19:31N 55°60' E 012°45'0 0.0
2016-Apr-30 18:19N 55°60' E 012°45'0 0.0
2016-Apr-30 17:33N 55°60' E 012°45'0 0.0
2016-Apr-30 16:31N 55°60' E 012°45'0 0.0
2016-Apr-30 15:33N 55°60' E 012°45'0 0.0
2016-Apr-30 14:33N 55°60' E 012°45'0 0.0
2016-Apr-30 13:33N 55°60' E 012°45'0 0.0
2016-Apr-30 12:33N 55°60' E 012°45'2 2.0
2016-Apr-30 11:33N 55°60' E 012°41'1 1.2
2016-Apr-30 10:33N 55°59' E 012°41'3 2.7
2016-Apr-30 09:33N 55°56' E 012°40'1 1.0
2016-Apr-30 08:33N 55°57' E 012°41'1 0.6
2016-Apr-30 07:33N 55°57' E 012°41'1 1.2
2016-Apr-30 06:32N 55°59' E 012°41'2 2.1
2016-Apr-30 05:34N 55°60' E 012°45'0 0.0
2016-Apr-30 04:32N 55°60' E 012°45'0 0.0
2016-Apr-30 03:32N 55°60' E 012°45'0 0.0
2016-Apr-30 02:32N 55°60' E 012°45'0 0.0
2016-Apr-30 01:31N 55°60' E 012°45'0 0.0
2016-Apr-30 00:33N 55°60' E 012°45'0 0.0
2016-Apr-29 23:33N 55°60' E 012°45'0 0.0
2016-Apr-29 22:33N 55°60' E 012°45'0 0.0
2016-Apr-29 21:30N 55°60' E 012°45'0 0.0
2016-Apr-29 20:33N 55°60' E 012°45'0 0.0
2016-Apr-29 19:33N 55°60' E 012°45'0 0.0
2016-Apr-29 18:33N 55°60' E 012°45'0 0.0
2016-Apr-29 17:33N 55°60' E 012°45'0 0.0
2016-Apr-29 16:33N 55°60' E 012°45'0 0.0
2016-Apr-29 15:22N 55°60' E 012°45'0 0.0
2016-Apr-29 14:33N 55°60' E 012°45'0 0.0
2016-Apr-29 13:33N 55°60' E 012°45'0 0.0
2016-Apr-29 12:33N 55°60' E 012°45'0 0.0
2016-Apr-29 11:33N 55°60' E 012°45'0 0.0
2016-Apr-29 10:33N 55°60' E 012°45'0 0.0
2016-Apr-29 09:33N 55°60' E 012°45'0 0.0
2016-Apr-29 08:33N 55°60' E 012°45'0 0.0
2016-Apr-29 07:33N 55°60' E 012°45'0 0.0
2016-Apr-29 06:33N 55°60' E 012°45'0 0.0
2016-Apr-29 05:33N 55°60' E 012°45'0 0.0
2016-Apr-29 04:33N 55°60' E 012°45'0 0.0
2016-Apr-29 03:33N 55°60' E 012°45'0 0.0
2016-Apr-29 02:33N 55°60' E 012°45'0 0.0
2016-Apr-29 01:33N 55°60' E 012°45'0 0.0
2016-Apr-29 00:33N 55°60' E 012°45'0 0.0
2016-Apr-28 23:33N 55°60' E 012°45'0 0.0
2016-Apr-28 22:33N 55°60' E 012°45'0 0.0
2016-Apr-28 21:33N 55°60' E 012°45'0 0.0
2016-Apr-28 20:31N 55°60' E 012°45'0 0.0
2016-Apr-28 19:33N 55°60' E 012°45'0 0.0
2016-Apr-28 18:33N 55°60' E 012°45'0 0.0
2016-Apr-28 17:33N 55°60' E 012°45'0 0.0
2016-Apr-28 16:33N 55°60' E 012°45'0 0.0
2016-Apr-28 15:33N 55°60' E 012°45'0 0.0
2016-Apr-28 14:30N 55°60' E 012°45'0 0.0
2016-Apr-28 13:28N 55°60' E 012°45'0 0.0
2016-Apr-28 12:33N 55°60' E 012°45'0 0.0
2016-Apr-28 11:31N 55°60' E 012°45'0 0.0
2016-Apr-28 10:27N 55°60' E 012°45'0 0.0
2016-Apr-28 09:33N 55°60' E 012°45'0 0.0
2016-Apr-28 08:31N 55°60' E 012°45'0 0.0
2016-Apr-28 07:31N 55°60' E 012°45'0 0.0
2016-Apr-28 06:33N 55°60' E 012°45'0 0.0
2016-Apr-28 05:31N 55°60' E 012°45'0 0.0
2016-Apr-28 04:33N 55°60' E 012°45'0 0.0
2016-Apr-28 03:28N 55°60' E 012°45'0 0.0
2016-Apr-28 02:33N 55°60' E 012°45'0 0.0
2016-Apr-28 01:33N 55°60' E 012°45'0 0.0
2016-Apr-28 00:33N 55°60' E 012°45'0 0.0
2016-Apr-27 23:33N 55°60' E 012°45'0 0.0
2016-Apr-27 22:33N 55°60' E 012°45'0 0.0
2016-Apr-27 21:31N 55°60' E 012°45'0 0.0
2016-Apr-27 20:33N 55°60' E 012°45'0 0.0
2016-Apr-27 19:33N 55°60' E 012°45'0 0.0
2016-Apr-27 18:33N 55°60' E 012°45'0 0.0
2016-Apr-27 17:30N 55°60' E 012°45'0 0.0
2016-Apr-27 16:28N 55°60' E 012°45'0 0.0
2016-Apr-27 15:22N 55°60' E 012°45'0 0.0
2016-Apr-27 14:33N 55°60' E 012°45'0 0.0
2016-Apr-27 13:30N 55°60' E 012°45'0 0.0
2016-Apr-27 12:33N 55°60' E 012°45'0 0.0
2016-Apr-27 11:33N 55°60' E 012°45'0 0.0
2016-Apr-27 10:33N 55°60' E 012°45'0 0.0
2016-Apr-27 09:33N 55°60' E 012°45'0 0.0
2016-Apr-27 08:31N 55°60' E 012°45'0 0.0
2016-Apr-27 07:33N 55°60' E 012°45'0 0.0
2016-Apr-27 06:33N 55°60' E 012°45'0 0.0
2016-Apr-27 05:30N 55°60' E 012°45'0 0.0
2016-Apr-27 04:33N 55°60' E 012°45'0 0.0
2016-Apr-27 03:33N 55°60' E 012°45'0 0.0
2016-Apr-27 02:31N 55°60' E 012°45'0 0.0
2016-Apr-27 01:28N 55°60' E 012°45'0 0.0
2016-Apr-27 00:33N 55°60' E 012°45'0 0.0
2016-Apr-26 23:33N 55°60' E 012°45'0 0.0
2016-Apr-26 22:33N 55°60' E 012°45'0 0.0
2016-Apr-26 21:33N 55°60' E 012°45'0 0.0
2016-Apr-26 20:33N 55°60' E 012°45'0 0.0
2016-Apr-26 19:31N 55°60' E 012°45'0 0.0
2016-Apr-26 18:33N 55°60' E 012°45'0 0.0
2016-Apr-26 17:31N 55°60' E 012°45'0 0.0
2016-Apr-26 16:31N 55°60' E 012°45'0 0.0
2016-Apr-26 15:31N 55°60' E 012°45'0 0.0
2016-Apr-26 14:33N 55°60' E 012°45'0 0.0
2016-Apr-26 13:33N 55°60' E 012°45'0 0.0
2016-Apr-26 12:28N 55°60' E 012°45'0 0.0
2016-Apr-26 11:33N 55°60' E 012°45'0 0.0
2016-Apr-26 10:31N 55°60' E 012°45'0 0.0
2016-Apr-26 09:31N 55°60' E 012°45'0 0.0
2016-Apr-26 08:33N 55°60' E 012°45'0 0.0
2016-Apr-26 07:33N 55°60' E 012°45'0 0.0
2016-Apr-26 06:29N 55°60' E 012°45'0 0.0
2016-Apr-26 05:31N 55°60' E 012°45'0 0.0
2016-Apr-26 04:28N 55°60' E 012°45'0 0.0
2016-Apr-26 03:28N 55°60' E 012°45'0 0.0
2016-Apr-26 02:28N 55°60' E 012°45'0 0.0
2016-Apr-26 01:25N 55°60' E 012°45'0 0.0
2016-Apr-26 00:32N 55°60' E 012°45'0 0.0
2016-Apr-25 23:32N 55°60' E 012°45'0 0.0
2016-Apr-25 22:28N 55°60' E 012°45'0 0.0
2016-Apr-25 21:28N 55°60' E 012°45'0 0.0
2016-Apr-25 20:23N 55°60' E 012°45'0 0.0
2016-Apr-25 19:32N 55°60' E 012°45'0 0.0
2016-Apr-25 18:32N 55°60' E 012°45'0 0.0
2016-Apr-25 17:31N 55°60' E 012°45'0 0.0
2016-Apr-25 16:32N 55°60' E 012°45'0 0.0
2016-Apr-25 15:29N 55°60' E 012°45'0 0.0
2016-Apr-25 14:23N 55°60' E 012°45'0 0.0
2016-Apr-25 13:31N 55°60' E 012°45'0 0.0
2016-Apr-25 12:31N 55°60' E 012°45'0 0.0
2016-Apr-25 11:32N 55°60' E 012°45'4 3.7
2016-Apr-25 10:34N 55°56' E 012°42'4 3.5
2016-Apr-25 09:32N 55°60' E 012°45'0 0.0
2016-Apr-25 08:32N 55°60' E 012°45'0 0.0
2016-Apr-25 07:32N 55°60' E 012°45'0 0.0
2016-Apr-25 06:32N 55°60' E 012°45'0 0.0
2016-Apr-25 05:31N 55°60' E 012°45'0 0.0
2016-Apr-25 04:31N 55°60' E 012°45'0 0.0
2016-Apr-25 03:31N 55°60' E 012°45'0 0.0
2016-Apr-25 02:28N 55°60' E 012°45'0 0.0
2016-Apr-25 01:31N 55°60' E 012°45'0 0.0
2016-Apr-25 00:31N 55°60' E 012°45'0 0.0
2016-Apr-24 23:31N 55°60' E 012°45'0 0.0
2016-Apr-24 22:25N 55°60' E 012°45'0 0.0
2016-Apr-24 21:25N 55°60' E 012°45'0 0.0
2016-Apr-24 20:31N 55°60' E 012°45'0 0.0
2016-Apr-24 19:26N 55°60' E 012°45'0 0.0
2016-Apr-24 18:32N 55°60' E 012°45'0 0.0
2016-Apr-24 17:32N 55°60' E 012°45'0 0.0
2016-Apr-24 16:32N 55°60' E 012°45'0 0.0
2016-Apr-24 15:32N 55°60' E 012°45'0 0.0
2016-Apr-24 14:32N 55°60' E 012°45'0 0.0
2016-Apr-24 13:32N 55°60' E 012°45'5 5.6
2016-Apr-24 12:33N 55°57' E 012°36'1 1.4
2016-Apr-24 11:33N 55°56' E 012°34'1 1.3
2016-Apr-24 10:33N 55°55' E 012°34'3 3.0
2016-Apr-24 09:33N 55°55' E 012°39'1 1.3
2016-Apr-24 08:33N 55°54' E 012°41'1 1.2
2016-Apr-24 07:33N 55°55' E 012°39'2 1.7
2016-Apr-24 06:33N 55°57' E 012°40'4 3.6
2016-Apr-24 05:28N 55°60' E 012°45'  
Track history (hours):
 
Tides and Currents Weather Stations Pressure Air Temp Water Temp Dewpoint Dewpoint Depression Visibility Wind Speed Wind Dir Waves Ship Positions

Siam

Last reported at 2016-May-04 04:32 UTC. Time now 2016-May-04 05:59 UTC.
Position N 55°60' E 012°45'.

Length 22 m.

Type: Passenger vessel. MMSI: 265572320.

Date/timePositionNaut miles runAvg speedWind from/ knotsBaromVisibWave heightAir tempDewpointWater temp
2016-May-04 04:32N 55°60' E 012°45'0 0.0
2016-May-04 03:32N 55°60' E 012°45'0 0.0
2016-May-04 02:32N 55°60' E 012°45'0 0.0
2016-May-04 01:32N 55°60' E 012°45'0 0.0
2016-May-04 00:32N 55°60' E 012°45'0 0.0
2016-May-03 23:32N 55°60' E 012°45'0 0.0
2016-May-03 22:26N 55°60' E 012°45'0 0.0
2016-May-03 21:32N 55°60' E 012°45'0 0.0
2016-May-03 20:32N 55°60' E 012°45'0 0.0
2016-May-03 19:32N 55°60' E 012°45'0 0.0
2016-May-03 18:32N 55°60' E 012°45'2 2.1
2016-May-03 17:32N 55°59' E 012°41'0 0.1
2016-May-03 16:33N 55°59' E 012°41'3 2.6
2016-May-03 15:32N 56°02' E 012°41'3 2.8
2016-May-03 14:32N 55°60' E 012°45'0 0.0
2016-May-03 13:31N 55°60' E 012°45'0 0.0
2016-May-03 12:33N 55°60' E 012°45'0 0.0
2016-May-03 11:33N 55°60' E 012°45'4 3.6
2016-May-03 10:33N 55°57' E 012°40'1 1.4
2016-May-03 09:33N 55°56' E 012°39'2 1.7
2016-May-03 08:33N 55°56' E 012°42'4 3.7
2016-May-03 07:33N 55°60' E 012°45'0 0.0
2016-May-03 06:33N 55°60' E 012°45'0 0.0
2016-May-03 05:33N 55°60' E 012°45'0 0.0
2016-May-03 04:33N 55°60' E 012°45'0 0.0
2016-May-03 03:33N 55°60' E 012°45'0 0.0
2016-May-03 02:33N 55°60' E 012°45'0 0.0
2016-May-03 01:30N 55°60' E 012°45'0 0.0
2016-May-03 00:31N 55°60' E 012°45'0 0.0
2016-May-02 23:34N 55°60' E 012°45'0 0.0
2016-May-02 22:33N 55°60' E 012°45'0 0.0
2016-May-02 21:34N 55°60' E 012°45'0 0.0
2016-May-02 20:30N 55°60' E 012°45'0 0.0
2016-May-02 19:27N 55°60' E 012°45'0 0.0
2016-May-02 18:33N 55°60' E 012°45'0 0.0
2016-May-02 17:33N 55°60' E 012°45'0 0.0
2016-May-02 16:33N 55°60' E 012°45'0 0.0
2016-May-02 15:33N 55°60' E 012°45'0 0.0
2016-May-02 14:33N 55°60' E 012°45'0 0.0
2016-May-02 13:33N 55°60' E 012°45'0 0.0
2016-May-02 12:33N 55°60' E 012°45'0 0.0
2016-May-02 11:33N 55°60' E 012°45'0 0.0
2016-May-02 10:31N 55°60' E 012°45'0 0.0
2016-May-02 09:33N 55°60' E 012°45'0 0.0
2016-May-02 08:33N 55°60' E 012°45'0 0.0
2016-May-02 07:27N 55°60' E 012°45'0 0.0
2016-May-02 06:33N 55°60' E 012°45'0 0.0
2016-May-02 05:33N 55°60' E 012°45'0 0.0
2016-May-02 04:33N 55°60' E 012°45'0 0.0
2016-May-02 03:31N 55°60' E 012°45'0 0.0
2016-May-02 02:31N 55°60' E 012°45'0 0.0
2016-May-02 01:33N 55°60' E 012°45'0 0.0
2016-May-02 00:33N 55°60' E 012°45'0 0.0
2016-May-01 23:31N 55°60' E 012°45'0 0.0
2016-May-01 22:33N 55°60' E 012°45'0 0.0
2016-May-01 21:22N 55°60' E 012°45'0 0.0
2016-May-01 20:28N 55°60' E 012°45'0 0.0
2016-May-01 19:30N 55°60' E 012°45'0 0.0
2016-May-01 18:28N 55°60' E 012°45'0 0.0
2016-May-01 17:16N 55°60' E 012°45'0 0.0
2016-May-01 16:24N 55°60' E 012°45'0 0.0
2016-May-01 15:28N 55°60' E 012°45'0 0.0
2016-May-01 14:33N 55°60' E 012°45'0 0.0
2016-May-01 13:28N 55°60' E 012°45'5 5.6
2016-May-01 12:33N 55°55' E 012°39'0 0.4
2016-May-01 11:32N 55°55' E 012°39'0 0.1
2016-May-01 10:32N 55°55' E 012°39'4 3.6
2016-May-01 09:33N 55°59' E 012°39'3 2.8
2016-May-01 08:33N 56°01' E 012°39'3 3.0
2016-May-01 07:33N 55°59' E 012°41'0 0.1
2016-May-01 06:33N 55°59' E 012°41'2 2.1
2016-May-01 05:33N 55°60' E 012°45'0 0.0
2016-May-01 04:31N 55°60' E 012°45'0 0.0
2016-May-01 03:33N 55°60' E 012°45'0 0.0
2016-May-01 02:33N 55°60' E 012°45'0 0.0
2016-May-01 01:30N 55°60' E 012°45'0 0.0
2016-May-01 00:33N 55°60' E 012°45'0 0.0
2016-Apr-30 23:33N 55°60' E 012°45'0 0.0
2016-Apr-30 22:33N 55°60' E 012°45'0 0.0
2016-Apr-30 21:33N 55°60' E 012°45'0 0.0
2016-Apr-30 20:33N 55°60' E 012°45'0 0.0
2016-Apr-30 19:31N 55°60' E 012°45'0 0.0
2016-Apr-30 18:19N 55°60' E 012°45'0 0.0
2016-Apr-30 17:33N 55°60' E 012°45'0 0.0
2016-Apr-30 16:31N 55°60' E 012°45'0 0.0
2016-Apr-30 15:33N 55°60' E 012°45'0 0.0
2016-Apr-30 14:33N 55°60' E 012°45'0 0.0
2016-Apr-30 13:33N 55°60' E 012°45'0 0.0
2016-Apr-30 12:33N 55°60' E 012°45'2 2.0
2016-Apr-30 11:33N 55°60' E 012°41'1 1.2
2016-Apr-30 10:33N 55°59' E 012°41'3 2.7
2016-Apr-30 09:33N 55°56' E 012°40'1 1.0
2016-Apr-30 08:33N 55°57' E 012°41'1 0.6
2016-Apr-30 07:33N 55°57' E 012°41'1 1.2
2016-Apr-30 06:32N 55°59' E 012°41'2 2.1
2016-Apr-30 05:34N 55°60' E 012°45'0 0.0
2016-Apr-30 04:32N 55°60' E 012°45'0 0.0
2016-Apr-30 03:32N 55°60' E 012°45'0 0.0
2016-Apr-30 02:32N 55°60' E 012°45'0 0.0
2016-Apr-30 01:31N 55°60' E 012°45'0 0.0
2016-Apr-30 00:33N 55°60' E 012°45'0 0.0
2016-Apr-29 23:33N 55°60' E 012°45'0 0.0
2016-Apr-29 22:33N 55°60' E 012°45'0 0.0
2016-Apr-29 21:30N 55°60' E 012°45'0 0.0
2016-Apr-29 20:33N 55°60' E 012°45'0 0.0
2016-Apr-29 19:33N 55°60' E 012°45'0 0.0
2016-Apr-29 18:33N 55°60' E 012°45'0 0.0
2016-Apr-29 17:33N 55°60' E 012°45'0 0.0
2016-Apr-29 16:33N 55°60' E 012°45'0 0.0
2016-Apr-29 15:22N 55°60' E 012°45'0 0.0
2016-Apr-29 14:33N 55°60' E 012°45'0 0.0
2016-Apr-29 13:33N 55°60' E 012°45'0 0.0
2016-Apr-29 12:33N 55°60' E 012°45'0 0.0
2016-Apr-29 11:33N 55°60' E 012°45'0 0.0
2016-Apr-29 10:33N 55°60' E 012°45'0 0.0
2016-Apr-29 09:33N 55°60' E 012°45'0 0.0
2016-Apr-29 08:33N 55°60' E 012°45'0 0.0
2016-Apr-29 07:33N 55°60' E 012°45'0 0.0
2016-Apr-29 06:33N 55°60' E 012°45'0 0.0
2016-Apr-29 05:33N 55°60' E 012°45'0 0.0
2016-Apr-29 04:33N 55°60' E 012°45'0 0.0
2016-Apr-29 03:33N 55°60' E 012°45'0 0.0
2016-Apr-29 02:33N 55°60' E 012°45'0 0.0
2016-Apr-29 01:33N 55°60' E 012°45'0 0.0
2016-Apr-29 00:33N 55°60' E 012°45'0 0.0
2016-Apr-28 23:33N 55°60' E 012°45'0 0.0
2016-Apr-28 22:33N 55°60' E 012°45'0 0.0
2016-Apr-28 21:33N 55°60' E 012°45'0 0.0
2016-Apr-28 20:31N 55°60' E 012°45'0 0.0
2016-Apr-28 19:33N 55°60' E 012°45'0 0.0
2016-Apr-28 18:33N 55°60' E 012°45'0 0.0
2016-Apr-28 17:33N 55°60' E 012°45'0 0.0
2016-Apr-28 16:33N 55°60' E 012°45'0 0.0
2016-Apr-28 15:33N 55°60' E 012°45'0 0.0
2016-Apr-28 14:30N 55°60' E 012°45'0 0.0
2016-Apr-28 13:28N 55°60' E 012°45'0 0.0
2016-Apr-28 12:33N 55°60' E 012°45'0 0.0
2016-Apr-28 11:31N 55°60' E 012°45'0 0.0
2016-Apr-28 10:27N 55°60' E 012°45'0 0.0
2016-Apr-28 09:33N 55°60' E 012°45'0 0.0
2016-Apr-28 08:31N 55°60' E 012°45'0 0.0
2016-Apr-28 07:31N 55°60' E 012°45'0 0.0
2016-Apr-28 06:33N 55°60' E 012°45'0 0.0
2016-Apr-28 05:31N 55°60' E 012°45'0 0.0
2016-Apr-28 04:33N 55°60' E 012°45'0 0.0
2016-Apr-28 03:28N 55°60' E 012°45'0 0.0
2016-Apr-28 02:33N 55°60' E 012°45'0 0.0
2016-Apr-28 01:33N 55°60' E 012°45'0 0.0
2016-Apr-28 00:33N 55°60' E 012°45'0 0.0
2016-Apr-27 23:33N 55°60' E 012°45'0 0.0
2016-Apr-27 22:33N 55°60' E 012°45'0 0.0
2016-Apr-27 21:31N 55°60' E 012°45'0 0.0
2016-Apr-27 20:33N 55°60' E 012°45'0 0.0
2016-Apr-27 19:33N 55°60' E 012°45'0 0.0
2016-Apr-27 18:33N 55°60' E 012°45'0 0.0
2016-Apr-27 17:30N 55°60' E 012°45'0 0.0
2016-Apr-27 16:28N 55°60' E 012°45'0 0.0
2016-Apr-27 15:22N 55°60' E 012°45'0 0.0
2016-Apr-27 14:33N 55°60' E 012°45'0 0.0
2016-Apr-27 13:30N 55°60' E 012°45'0 0.0
2016-Apr-27 12:33N 55°60' E 012°45'0 0.0
2016-Apr-27 11:33N 55°60' E 012°45'0 0.0
2016-Apr-27 10:33N 55°60' E 012°45'0 0.0
2016-Apr-27 09:33N 55°60' E 012°45'0 0.0
2016-Apr-27 08:31N 55°60' E 012°45'0 0.0
2016-Apr-27 07:33N 55°60' E 012°45'0 0.0
2016-Apr-27 06:33N 55°60' E 012°45'0 0.0
2016-Apr-27 05:30N 55°60' E 012°45'0 0.0
2016-Apr-27 04:33N 55°60' E 012°45'0 0.0
2016-Apr-27 03:33N 55°60' E 012°45'0 0.0
2016-Apr-27 02:31N 55°60' E 012°45'0 0.0
2016-Apr-27 01:28N 55°60' E 012°45'0 0.0
2016-Apr-27 00:33N 55°60' E 012°45'0 0.0
2016-Apr-26 23:33N 55°60' E 012°45'0 0.0
2016-Apr-26 22:33N 55°60' E 012°45'0 0.0
2016-Apr-26 21:33N 55°60' E 012°45'0 0.0
2016-Apr-26 20:33N 55°60' E 012°45'0 0.0
2016-Apr-26 19:31N 55°60' E 012°45'0 0.0
2016-Apr-26 18:33N 55°60' E 012°45'0 0.0
2016-Apr-26 17:31N 55°60' E 012°45'0 0.0
2016-Apr-26 16:31N 55°60' E 012°45'0 0.0
2016-Apr-26 15:31N 55°60' E 012°45'0 0.0
2016-Apr-26 14:33N 55°60' E 012°45'0 0.0
2016-Apr-26 13:33N 55°60' E 012°45'0 0.0
2016-Apr-26 12:28N 55°60' E 012°45'0 0.0
2016-Apr-26 11:33N 55°60' E 012°45'0 0.0
2016-Apr-26 10:31N 55°60' E 012°45'0 0.0
2016-Apr-26 09:31N 55°60' E 012°45'0 0.0
2016-Apr-26 08:33N 55°60' E 012°45'0 0.0
2016-Apr-26 07:33N 55°60' E 012°45'0 0.0
2016-Apr-26 06:29N 55°60' E 012°45'0 0.0
2016-Apr-26 05:31N 55°60' E 012°45'0 0.0
2016-Apr-26 04:28N 55°60' E 012°45'0 0.0
2016-Apr-26 03:28N 55°60' E 012°45'0 0.0
2016-Apr-26 02:28N 55°60' E 012°45'0 0.0
2016-Apr-26 01:25N 55°60' E 012°45'0 0.0
2016-Apr-26 00:32N 55°60' E 012°45'0 0.0
2016-Apr-25 23:32N 55°60' E 012°45'0 0.0
2016-Apr-25 22:28N 55°60' E 012°45'0 0.0
2016-Apr-25 21:28N 55°60' E 012°45'0 0.0
2016-Apr-25 20:23N 55°60' E 012°45'0 0.0
2016-Apr-25 19:32N 55°60' E 012°45'0 0.0
2016-Apr-25 18:32N 55°60' E 012°45'0 0.0
2016-Apr-25 17:31N 55°60' E 012°45'0 0.0
2016-Apr-25 16:32N 55°60' E 012°45'0 0.0
2016-Apr-25 15:29N 55°60' E 012°45'0 0.0
2016-Apr-25 14:23N 55°60' E 012°45'0 0.0
2016-Apr-25 13:31N 55°60' E 012°45'0 0.0
2016-Apr-25 12:31N 55°60' E 012°45'0 0.0
2016-Apr-25 11:32N 55°60' E 012°45'4 3.7
2016-Apr-25 10:34N 55°56' E 012°42'4 3.5
2016-Apr-25 09:32N 55°60' E 012°45'0 0.0
2016-Apr-25 08:32N 55°60' E 012°45'0 0.0
2016-Apr-25 07:32N 55°60' E 012°45'0 0.0
2016-Apr-25 06:32N 55°60' E 012°45'0 0.0
2016-Apr-25 05:31N 55°60' E 012°45'0 0.0
2016-Apr-25 04:31N 55°60' E 012°45'0 0.0
2016-Apr-25 03:31N 55°60' E 012°45'0 0.0
2016-Apr-25 02:28N 55°60' E 012°45'0 0.0
2016-Apr-25 01:31N 55°60' E 012°45'0 0.0
2016-Apr-25 00:31N 55°60' E 012°45'0 0.0
2016-Apr-24 23:31N 55°60' E 012°45'0 0.0
2016-Apr-24 22:25N 55°60' E 012°45'0 0.0
2016-Apr-24 21:25N 55°60' E 012°45'0 0.0
2016-Apr-24 20:31N 55°60' E 012°45'0 0.0
2016-Apr-24 19:26N 55°60' E 012°45'0 0.0
2016-Apr-24 18:32N 55°60' E 012°45'0 0.0
2016-Apr-24 17:32N 55°60' E 012°45'0 0.0
2016-Apr-24 16:32N 55°60' E 012°45'0 0.0
2016-Apr-24 15:32N 55°60' E 012°45'0 0.0
2016-Apr-24 14:32N 55°60' E 012°45'0 0.0
2016-Apr-24 13:32N 55°60' E 012°45'5 5.6
2016-Apr-24 12:33N 55°57' E 012°36'1 1.4
2016-Apr-24 11:33N 55°56' E 012°34'1 1.3
2016-Apr-24 10:33N 55°55' E 012°34'3 3.0
2016-Apr-24 09:33N 55°55' E 012°39'1 1.3
2016-Apr-24 08:33N 55°54' E 012°41'1 1.2
2016-Apr-24 07:33N 55°55' E 012°39'2 1.7
2016-Apr-24 06:33N 55°57' E 012°40'4 3.6
2016-Apr-24 05:28N 55°60' E 012°45'  

Dump ship's entire track history